Time;durP1;ratioP1;P1;durP2;ratioP2;P2;SDS_P1;SDS_P2;PMS_P1;PMS_P2;Temp;Humidity;BMP_temperature;BMP_pressure;BME280_temperature;BME280_humidity;BME280_pressure;Samples;Min_cycle;Max_cycle;Signal;HPM_P1;HPM_P2
2021/07/16 00:00:29;;;;;;;14.83;7.20;;;;;;;;;;5077913;28;20488;-72
2021/07/16 00:02:57;;;;;;;16.87;6.93;;;;;;;;;;5078111;28;20782;-73
2021/07/16 00:05:25;;;;;;;17.13;8.07;;;;;;;;;;5078229;28;20787;-73
2021/07/16 00:07:54;;;;;;;20.63;7.50;;;;;;;;;;5077450;28;20453;-73
2021/07/16 00:10:22;;;;;;;14.47;6.50;;;;;;;;;;5078079;28;20513;-72
2021/07/16 00:12:51;;;;;;;14.77;6.57;;;;;;;;;;5078014;28;20719;-73
2021/07/16 00:15:19;;;;;;;14.23;8.10;;;;;;;;;;5077544;28;20458;-72
2021/07/16 00:17:47;;;;;;;23.83;10.30;;;;;;;;;;5077153;28;20741;-72
2021/07/16 00:20:16;;;;;;;13.77;6.97;;;;;;;;;;5077489;28;20499;-72
2021/07/16 00:22:47;;;;;;;11.50;6.90;;;;;;;;;;5077199;28;20500;-72
2021/07/16 00:25:16;;;;;;;20.13;7.50;;;;;;;;;;5076655;28;20863;-73
2021/07/16 00:27:47;;;;;;;18.93;9.70;;;;;;;;;;5077635;28;20506;-73
2021/07/16 00:30:16;;;;;;;16.27;7.40;;;;;;;;;;5077944;28;20715;-72
2021/07/16 00:32:43;;;;;;;23.93;10.27;;;;;;;;;;5077175;28;20468;-73
2021/07/16 00:35:14;;;;;;;22.10;8.90;;;;;;;;;;5077513;28;20832;-72
2021/07/16 00:37:42;;;;;;;15.97;8.60;;;;;;;;;;5076888;28;20560;-72
2021/07/16 00:40:11;;;;;;;15.40;6.87;;;;;;;;;;5077281;28;20488;-72
2021/07/16 00:42:41;;;;;;;16.97;8.40;;;;;;;;;;5077350;28;20987;-72
2021/07/16 00:45:10;;;;;;;18.17;8.33;;;;;;;;;;5076451;28;20463;-72
2021/07/16 00:47:38;;;;;;;14.17;7.97;;;;;;;;;;5077376;28;20702;-72
2021/07/16 00:50:08;;;;;;;19.63;8.30;;;;;;;;;;5077694;28;20889;-72
2021/07/16 00:52:36;;;;;;;21.97;9.13;;;;;;;;;;5077076;28;20460;-72
2021/07/16 00:55:04;;;;;;;20.63;9.33;;;;;;;;;;5077275;28;20919;-72
2021/07/16 00:57:32;;;;;;;18.20;9.57;;;;;;;;;;5076766;28;20510;-72
2021/07/16 01:00:01;;;;;;;22.53;8.43;;;;;;;;;;5076657;28;20480;-73
2021/07/16 01:02:29;;;;;;;21.63;9.50;;;;;;;;;;5076973;28;20521;-72
2021/07/16 01:04:58;;;;;;;18.00;8.47;;;;;;;;;;5076850;28;20448;-72
2021/07/16 01:07:25;;;;;;;16.57;8.73;;;;;;;;;;5076441;28;20500;-72
2021/07/16 01:09:54;;;;;;;15.10;8.10;;;;;;;;;;5076301;28;20503;-72
2021/07/16 01:12:25;;;;;;;12.93;7.90;;;;;;;;;;5076346;28;20456;-72
2021/07/16 01:14:53;;;;;;;33.57;9.47;;;;;;;;;;5075992;28;20509;-72
2021/07/16 01:17:23;;;;;;;15.70;8.03;;;;;;;;;;5076292;28;20456;-73
2021/07/16 01:19:53;;;;;;;19.60;8.77;;;;;;;;;;5076025;28;20508;-72
2021/07/16 01:22:23;;;;;;;17.33;9.97;;;;;;;;;;5076827;28;20460;-72
2021/07/16 01:24:53;;;;;;;17.80;8.80;;;;;;;;;;5076224;28;20533;-72
2021/07/16 01:27:21;;;;;;;18.17;7.90;;;;;;;;;;5076152;28;20555;-72
2021/07/16 01:29:49;;;;;;;15.17;8.67;;;;;;;;;;5076422;28;20717;-72
2021/07/16 01:32:22;;;;;;;14.50;7.73;;;;;;;;;;5076413;28;20506;-72
2021/07/16 01:34:50;;;;;;;14.90;8.40;;;;;;;;;;5076257;28;20518;-72
2021/07/16 01:37:18;;;;;;;19.97;9.47;;;;;;;;;;5076310;28;20721;-72
2021/07/16 01:39:45;;;;;;;16.77;7.00;;;;;;;;;;5075939;28;20488;-72
2021/07/16 01:42:15;;;;;;;17.60;9.03;;;;;;;;;;5075884;28;20870;-72
2021/07/16 01:44:44;;;;;;;13.17;8.13;;;;;;;;;;5076018;28;20947;-72
2021/07/16 01:47:13;;;;;;;16.70;8.50;;;;;;;;;;5075585;28;20448;-72
2021/07/16 01:49:41;;;;;;;17.10;7.90;;;;;;;;;;5075862;28;20484;-72
2021/07/16 01:52:09;;;;;;;24.23;8.60;;;;;;;;;;5075854;28;20452;-72
2021/07/16 01:54:37;;;;;;;11.93;7.60;;;;;;;;;;5076073;28;20459;-72
2021/07/16 01:57:06;;;;;;;20.77;7.90;;;;;;;;;;5076319;28;20521;-72
2021/07/16 01:59:35;;;;;;;14.90;7.37;;;;;;;;;;5076195;28;20491;-72
2021/07/16 02:02:02;;;;;;;14.97;8.40;;;;;;;;;;5075709;28;20464;-72
2021/07/16 02:04:30;;;;;;;17.73;8.50;;;;;;;;;;5076377;28;20460;-72
2021/07/16 02:07:00;;;;;;;12.40;7.00;;;;;;;;;;5076104;28;20453;-72
2021/07/16 02:09:28;;;;;;;16.43;7.77;;;;;;;;;;5075773;28;20437;-72
2021/07/16 02:11:58;;;;;;;16.67;7.10;;;;;;;;;;5075944;28;20938;-72
2021/07/16 02:14:25;;;;;;;17.90;7.57;;;;;;;;;;5075947;28;20864;-72
2021/07/16 02:16:55;;;;;;;25.67;8.43;;;;;;;;;;5075581;28;20452;-72
2021/07/16 02:19:23;;;;;;;17.90;7.83;;;;;;;;;;5075577;28;20488;-72
2021/07/16 02:21:51;;;;;;;15.50;7.70;;;;;;;;;;5079497;28;20878;-72
2021/07/16 02:24:19;;;;;;;17.50;7.60;;;;;;;;;;5079654;28;20467;-72
2021/07/16 02:26:47;;;;;;;13.77;6.90;;;;;;;;;;5079419;28;20448;-72
2021/07/16 02:29:15;;;;;;;23.87;7.77;;;;;;;;;;5080148;28;20868;-72
2021/07/16 02:31:42;;;;;;;11.83;8.53;;;;;;;;;;5079722;28;20455;-72
2021/07/16 02:34:11;;;;;;;11.30;7.60;;;;;;;;;;5079770;28;20468;-72
2021/07/16 02:36:40;;;;;;;20.17;7.90;;;;;;;;;;5079401;28;20487;-72
2021/07/16 02:39:07;;;;;;;19.03;7.90;;;;;;;;;;5079075;28;20456;-72
2021/07/16 02:41:38;;;;;;;14.20;8.00;;;;;;;;;;5079418;28;20494;-72
2021/07/16 02:44:06;;;;;;;11.73;7.93;;;;;;;;;;5079578;28;20947;-72
2021/07/16 02:46:34;;;;;;;19.07;8.40;;;;;;;;;;5079418;28;20453;-72
2021/07/16 02:49:01;;;;;;;15.80;8.23;;;;;;;;;;5079255;28;20475;-72
2021/07/16 02:51:31;;;;;;;20.80;9.00;;;;;;;;;;5079431;28;20459;-72
2021/07/16 02:53:59;;;;;;;14.33;9.33;;;;;;;;;;5080007;28;20456;-72
2021/07/16 02:56:27;;;;;;;18.03;8.27;;;;;;;;;;5079345;28;20463;-72
2021/07/16 02:58:54;;;;;;;13.87;9.07;;;;;;;;;;5079372;28;20491;-72
2021/07/16 03:01:22;;;;;;;20.13;8.83;;;;;;;;;;5078970;28;20916;-72
2021/07/16 03:03:50;;;;;;;19.07;9.63;;;;;;;;;;5079033;28;20465;-72
2021/07/16 03:06:18;;;;;;;17.60;9.20;;;;;;;;;;5079061;28;20547;-72
2021/07/16 03:08:47;;;;;;;17.33;8.93;;;;;;;;;;5079360;28;20514;-72
2021/07/16 03:11:15;;;;;;;21.20;8.70;;;;;;;;;;5078888;28;20467;-72
2021/07/16 03:13:43;;;;;;;19.27;8.70;;;;;;;;;;5078932;28;20452;-72
2021/07/16 03:16:11;;;;;;;18.70;7.77;;;;;;;;;;5078690;28;20740;-72
2021/07/16 03:18:39;;;;;;;22.40;8.53;;;;;;;;;;5078745;28;20722;-72
2021/07/16 03:21:07;;;;;;;13.13;8.00;;;;;;;;;;5079059;28;20534;-72
2021/07/16 03:23:34;;;;;;;15.63;7.97;;;;;;;;;;5079348;28;20873;-73
2021/07/16 03:26:04;;;;;;;17.17;9.17;;;;;;;;;;5078363;28;20463;-72
2021/07/16 03:28:32;;;;;;;14.17;7.57;;;;;;;;;;5078413;28;20456;-72
2021/07/16 03:31:00;;;;;;;20.43;9.17;;;;;;;;;;5077236;28;20451;-72
2021/07/16 03:33:30;;;;;;;12.37;7.90;;;;;;;;;;5077811;28;20879;-72
2021/07/16 03:35:57;;;;;;;17.23;9.07;;;;;;;;;;5077894;28;20506;-72
2021/07/16 03:38:25;;;;;;;29.37;9.13;;;;;;;;;;5078037;28;20517;-72
2021/07/16 03:40:58;;;;;;;18.13;8.53;;;;;;;;;;5078494;28;20804;-72
2021/07/16 03:43:27;;;;;;;18.83;9.03;;;;;;;;;;5077974;28;20474;-72
2021/07/16 03:45:55;;;;;;;20.27;9.80;;;;;;;;;;5078368;28;20880;-72
2021/07/16 03:48:23;;;;;;;18.67;7.97;;;;;;;;;;5078035;28;20811;-72
2021/07/16 03:50:51;;;;;;;25.50;8.70;;;;;;;;;;5078079;28;20478;-72
2021/07/16 03:53:22;;;;;;;16.00;9.20;;;;;;;;;;5078365;28;20452;-72
2021/07/16 03:55:50;;;;;;;15.27;7.73;;;;;;;;;;5075684;28;20858;-72
2021/07/16 03:58:17;;;;;;;12.20;7.70;;;;;;;;;;5077601;28;20885;-72
2021/07/16 04:00:47;;;;;;;17.40;7.40;;;;;;;;;;5077317;28;20557;-72
2021/07/16 04:03:17;;;;;;;21.60;10.00;;;;;;;;;;5076546;28;20440;-72
2021/07/16 04:05:45;;;;;;;13.13;7.70;;;;;;;;;;5077796;28;20468;-72
2021/07/16 04:08:17;;;;;;;18.53;9.20;;;;;;;;;;5077431;28;20445;-72
2021/07/16 04:10:45;;;;;;;19.00;8.87;;;;;;;;;;5077010;28;20452;-72
2021/07/16 04:13:14;;;;;;;13.33;6.93;;;;;;;;;;5077620;28;20452;-72
2021/07/16 04:15:42;;;;;;;11.43;6.20;;;;;;;;;;5077023;28;20561;-72
2021/07/16 04:18:12;;;;;;;17.10;8.37;;;;;;;;;;5077554;28;20460;-72
2021/07/16 04:20:40;;;;;;;18.40;7.40;;;;;;;;;;5077161;28;20915;-72
2021/07/16 04:23:08;;;;;;;15.87;7.93;;;;;;;;;;5077247;28;20495;-72
2021/07/16 04:25:36;;;;;;;18.50;9.97;;;;;;;;;;5076718;28;20732;-72
2021/07/16 04:28:07;;;;;;;15.30;8.97;;;;;;;;;;5076840;28;20876;-72
2021/07/16 04:30:35;;;;;;;16.53;7.93;;;;;;;;;;5076955;28;20464;-72
2021/07/16 04:33:05;;;;;;;21.37;9.83;;;;;;;;;;5076212;28;20780;-72
2021/07/16 04:35:34;;;;;;;15.43;8.10;;;;;;;;;;5076870;28;21136;-72
2021/07/16 04:38:02;;;;;;;12.93;7.30;;;;;;;;;;5076339;28;20845;-72
2021/07/16 04:40:32;;;;;;;19.93;8.70;;;;;;;;;;5075910;28;20997;-72
2021/07/16 04:43:00;;;;;;;22.93;8.80;;;;;;;;;;5076283;28;20460;-72
2021/07/16 04:45:31;;;;;;;15.33;8.27;;;;;;;;;;5062910;28;20458;-72
2021/07/16 04:48:02;;;;;;;16.30;7.80;;;;;;;;;;5056789;28;20853;-72
2021/07/16 04:50:29;;;;;;;20.63;7.70;;;;;;;;;;5056952;28;20459;-72
2021/07/16 04:52:59;;;;;;;20.87;8.00;;;;;;;;;;5060261;28;20508;-72
2021/07/16 04:55:27;;;;;;;14.40;7.33;;;;;;;;;;5075444;28;20494;-72
2021/07/16 04:57:55;;;;;;;14.97;8.50;;;;;;;;;;5075340;28;20654;-72
2021/07/16 05:00:23;;;;;;;18.87;8.27;;;;;;;;;;5076019;28;20476;-72
2021/07/16 05:02:51;;;;;;;17.97;10.00;;;;;;;;;;5059200;28;20472;-72
2021/07/16 05:05:19;;;;;;;14.63;6.83;;;;;;;;;;5054533;28;20652;-72
2021/07/16 05:07:47;;;;;;;24.73;8.20;;;;;;;;;;5055217;28;20445;-72
2021/07/16 05:10:16;;;;;;;14.10;7.80;;;;;;;;;;5055400;28;20468;-72
2021/07/16 05:12:44;;;;;;;29.03;8.47;;;;;;;;;;5054727;28;20441;-72
2021/07/16 05:15:12;;;;;;;15.53;6.93;;;;;;;;;;5053362;28;20495;-72
2021/07/16 05:17:41;;;;;;;14.13;7.50;;;;;;;;;;5055920;28;20449;-72
2021/07/16 05:20:09;;;;;;;13.80;7.47;;;;;;;;;;5055429;28;20548;-72
2021/07/16 05:22:37;;;;;;;47.37;33.77;;;;;;;;;;5054561;28;20457;-72
2021/07/16 05:25:06;;;;;;;11.87;6.77;;;;;;;;;;5069822;28;20887;-72
2021/07/16 05:27:35;;;;;;;12.30;6.40;;;;;;;;;;5076249;28;20452;-73
2021/07/16 05:30:03;;;;;;;23.30;7.60;;;;;;;;;;5074394;28;20555;-72
2021/07/16 05:32:31;;;;;;;13.23;6.77;;;;;;;;;;5074622;28;20603;-72
2021/07/16 05:34:59;;;;;;;11.53;8.10;;;;;;;;;;5074578;28;20469;-72
2021/07/16 05:37:27;;;;;;;13.83;8.50;;;;;;;;;;5074440;28;20514;-72
2021/07/16 05:39:56;;;;;;;16.97;7.20;;;;;;;;;;5073611;28;20461;-72
2021/07/16 05:42:24;;;;;;;16.50;8.57;;;;;;;;;;5074037;28;20488;-73
2021/07/16 05:44:55;;;;;;;15.23;7.43;;;;;;;;;;5074183;28;20456;-72
2021/07/16 05:47:26;;;;;;;16.20;7.40;;;;;;;;;;5069139;28;20517;-73
2021/07/16 05:49:54;;;;;;;22.90;8.20;;;;;;;;;;5074464;28;20766;-72
2021/07/16 05:52:23;;;;;;;15.27;7.60;;;;;;;;;;5073357;28;20456;-72
2021/07/16 05:54:51;;;;;;;15.67;7.20;;;;;;;;;;5059900;28;20457;-72
2021/07/16 05:57:20;;;;;;;17.13;7.77;;;;;;;;;;5060075;28;20549;-72
2021/07/16 05:59:48;;;;;;;20.40;7.37;;;;;;;;;;5069409;28;20461;-72
2021/07/16 06:02:18;;;;;;;21.97;9.70;;;;;;;;;;5074883;28;20553;-72
2021/07/16 06:04:46;;;;;;;15.27;7.10;;;;;;;;;;5073606;28;20453;-72
2021/07/16 06:07:17;;;;;;;15.90;9.73;;;;;;;;;;5074653;28;20448;-72
2021/07/16 06:09:46;;;;;;;18.80;8.10;;;;;;;;;;5074472;28;20508;-72
2021/07/16 06:12:17;;;;;;;19.17;8.20;;;;;;;;;;5073917;28;20441;-72
2021/07/16 06:14:45;;;;;;;17.10;7.37;;;;;;;;;;5074107;28;20471;-71
2021/07/16 06:17:13;;;;;;;14.07;6.83;;;;;;;;;;5073562;28;20460;-71
2021/07/16 06:19:42;;;;;;;14.23;8.93;;;;;;;;;;5073621;28;20452;-71
2021/07/16 06:22:10;;;;;;;13.57;6.57;;;;;;;;;;5073512;28;20960;-71
2021/07/16 06:24:41;;;;;;;14.23;6.77;;;;;;;;;;5074682;28;20514;-71
2021/07/16 06:27:10;;;;;;;14.10;7.63;;;;;;;;;;5074528;28;20448;-72
2021/07/16 06:29:38;;;;;;;14.27;7.90;;;;;;;;;;5059841;28;20527;-71
2021/07/16 06:32:11;;;;;;;10.40;7.27;;;;;;;;;;5054465;28;20450;-72
2021/07/16 06:34:39;;;;;;;18.23;8.07;;;;;;;;;;5054153;28;20468;-71
2021/07/16 06:37:08;;;;;;;14.67;7.57;;;;;;;;;;5061987;28;20449;-71
2021/07/16 06:39:39;;;;;;;13.63;6.80;;;;;;;;;;5073985;28;20526;-71
2021/07/16 06:42:07;;;;;;;18.73;8.00;;;;;;;;;;5073231;28;20573;-72
2021/07/16 06:44:37;;;;;;;19.80;7.93;;;;;;;;;;5072001;28;20468;-72
2021/07/16 06:47:05;;;;;;;13.13;7.80;;;;;;;;;;5073689;28;20448;-71
2021/07/16 06:49:33;;;;;;;16.20;7.83;;;;;;;;;;5073074;28;20513;-72
2021/07/16 06:52:01;;;;;;;14.97;8.47;;;;;;;;;;5064853;28;21070;-71
2021/07/16 06:54:31;;;;;;;19.47;8.67;;;;;;;;;;5093662;28;20535;-71
2021/07/16 06:56:58;;;;;;;18.97;9.93;;;;;;;;;;5093932;28;20899;-72
2021/07/16 06:59:26;;;;;;;17.10;9.43;;;;;;;;;;5092047;28;20799;-71
2021/07/16 07:01:58;;;;;;;26.17;10.50;;;;;;;;;;5090267;28;20548;-72
2021/07/16 07:04:27;;;;;;;14.07;8.63;;;;;;;;;;5073089;28;20546;-72
2021/07/16 07:06:56;;;;;;;17.40;9.90;;;;;;;;;;5075813;28;20452;-72
2021/07/16 07:09:24;;;;;;;20.13;11.10;;;;;;;;;;5077592;28;20487;-72
2021/07/16 07:11:56;;;;;;;17.63;9.27;;;;;;;;;;5077517;28;20529;-72
2021/07/16 07:14:24;;;;;;;15.97;9.63;;;;;;;;;;5079336;28;20818;-72
2021/07/16 07:16:55;;;;;;;18.90;10.50;;;;;;;;;;5077766;28;20475;-72
2021/07/16 07:19:23;;;;;;;22.00;10.23;;;;;;;;;;5075733;28;20534;-72
2021/07/16 07:21:50;;;;;;;19.67;10.47;;;;;;;;;;5073632;28;20480;-72
2021/07/16 07:24:19;;;;;;;19.53;10.00;;;;;;;;;;5071046;28;20460;-72
2021/07/16 07:26:48;;;;;;;17.40;10.00;;;;;;;;;;5075525;28;20923;-72
2021/07/16 07:29:18;;;;;;;14.90;10.10;;;;;;;;;;5074338;28;20460;-71
2021/07/16 07:31:46;;;;;;;25.50;10.10;;;;;;;;;;5073514;28;20481;-72
2021/07/16 07:34:16;;;;;;;18.33;8.50;;;;;;;;;;5075938;28;20538;-72
2021/07/16 07:36:48;;;;;;;27.70;11.13;;;;;;;;;;5066582;28;20433;-72
2021/07/16 07:39:23;;;;;;;17.23;11.30;;;;;;;;;;5060514;28;20470;-72
2021/07/16 07:41:52;;;;;;;17.97;10.00;;;;;;;;;;5056071;28;20654;-73
2021/07/16 07:44:21;;;;;;;17.10;9.37;;;;;;;;;;5069059;28;20468;-72
2021/07/16 07:46:49;;;;;;;20.37;9.63;;;;;;;;;;5077139;28;20522;-72
2021/07/16 07:49:17;;;;;;;23.77;9.90;;;;;;;;;;5075914;28;20467;-73
2021/07/16 07:51:45;;;;;;;18.50;8.70;;;;;;;;;;5075829;28;20921;-72
2021/07/16 07:54:13;;;;;;;18.70;9.23;;;;;;;;;;5075103;28;20549;-73
2021/07/16 07:56:43;;;;;;;29.97;10.67;;;;;;;;;;5076998;28;20444;-74
2021/07/16 08:02:11;;;;;;;19.73;11.00;;;;;;;;;;5073958;28;20951;-73
2021/07/16 08:07:43;;;;;;;15.37;9.53;;;;;;;;;;5075530;28;20713;-74
2021/07/16 08:10:22;;;;;;;24.90;12.37;;;;;;;;;;5076599;28;20449;-73
2021/07/16 08:12:50;;;;;;;20.37;10.00;;;;;;;;;;5061770;28;20460;-71
2021/07/16 08:15:20;;;;;;;23.00;11.03;;;;;;;;;;5074052;28;20563;-72
2021/07/16 08:17:49;;;;;;;24.23;11.10;;;;;;;;;;5073442;28;20522;-73
2021/07/16 08:20:41;;;;;;;32.97;11.63;;;;;;;;;;5070976;28;20465;-73
2021/07/16 08:23:09;;;;;;;20.33;11.13;;;;;;;;;;5062933;28;20473;-74
2021/07/16 08:25:37;;;;;;;22.57;10.83;;;;;;;;;;5070465;28;20460;-73
2021/07/16 08:28:15;;;;;;;19.70;10.77;;;;;;;;;;5072016;28;20460;-73
2021/07/16 08:30:43;;;;;;;24.63;12.43;;;;;;;;;;5056061;28;20461;-72
2021/07/16 08:33:30;;;;;;;23.00;10.40;;;;;;;;;;5055293;28;20484;-73
2021/07/16 08:36:08;;;;;;;21.00;10.33;;;;;;;;;;5060745;28;20549;-73
2021/07/16 08:38:40;;;;;;;16.00;9.47;;;;;;;;;;5073902;28;20448;-74
2021/07/16 08:41:08;;;;;;;25.60;12.30;;;;;;;;;;5084906;28;20470;-73
2021/07/16 08:43:36;;;;;;;25.40;14.20;;;;;;;;;;5082374;28;20456;-73
2021/07/16 08:46:06;;;;;;;25.83;11.93;;;;;;;;;;5075666;28;20460;-73
2021/07/16 08:48:36;;;;;;;19.03;10.43;;;;;;;;;;5075178;28;20934;-73
2021/07/16 08:51:04;;;;;;;17.50;11.03;;;;;;;;;;5084596;28;20883;-72
2021/07/16 08:53:34;;;;;;;17.37;10.93;;;;;;;;;;5078778;28;20927;-73
2021/07/16 08:56:05;;;;;;;23.43;11.30;;;;;;;;;;5087598;28;21029;-74
2021/07/16 08:58:36;;;;;;;18.47;10.77;;;;;;;;;;5075477;28;20903;-74
2021/07/16 09:01:04;;;;;;;17.00;10.20;;;;;;;;;;5075901;28;20533;-73
2021/07/16 09:03:32;;;;;;;19.90;11.27;;;;;;;;;;5066124;28;20482;-74
2021/07/16 09:06:02;;;;;;;22.23;11.47;;;;;;;;;;5053687;28;20453;-74
2021/07/16 09:08:34;;;;;;;30.20;12.33;;;;;;;;;;5065500;28;20543;-74
2021/07/16 09:11:02;;;;;;;13.80;10.10;;;;;;;;;;5074325;28;20466;-74
2021/07/16 09:13:30;;;;;;;19.50;11.37;;;;;;;;;;5072204;28;20452;-76
2021/07/16 09:16:04;;;;;;;24.67;13.23;;;;;;;;;;5073248;28;20460;-74
2021/07/16 09:18:33;;;;;;;19.10;10.33;;;;;;;;;;5075069;28;20803;-75
2021/07/16 09:21:12;;;;;;;18.83;10.30;;;;;;;;;;5074251;28;20859;-74
2021/07/16 09:23:41;;;;;;;25.27;11.03;;;;;;;;;;5070842;28;20483;-74
2021/07/16 09:26:11;;;;;;;20.90;11.40;;;;;;;;;;5072333;28;20861;-73
2021/07/16 09:28:42;;;;;;;21.03;11.13;;;;;;;;;;5073593;28;20904;-73
2021/07/16 09:31:22;;;;;;;14.80;10.53;;;;;;;;;;5058262;28;20457;-73
2021/07/16 09:33:54;;;;;;;21.00;11.97;;;;;;;;;;5073721;28;20525;-72
2021/07/16 09:36:43;;;;;;;22.00;12.80;;;;;;;;;;5074299;28;20539;-73
2021/07/16 09:39:24;;;;;;;17.10;11.73;;;;;;;;;;5068747;28;20480;-72
2021/07/16 09:41:53;;;;;;;17.57;10.87;;;;;;;;;;5072911;28;20519;-73
2021/07/16 09:44:29;;;;;;;21.40;11.20;;;;;;;;;;5072823;28;20891;-73
2021/07/16 09:47:10;;;;;;;19.43;10.53;;;;;;;;;;5084264;28;20598;-73
2021/07/16 09:49:42;;;;;;;18.10;11.27;;;;;;;;;;5054064;28;20473;-73
2021/07/16 09:52:11;;;;;;;15.70;10.17;;;;;;;;;;5053266;28;20516;-75
2021/07/16 09:55:02;;;;;;;16.17;11.02;;;;;;;;;;5054203;28;20739;-73
2021/07/16 09:57:41;;;;;;;15.50;10.80;;;;;;;;;;5062988;28;20206;-73
2021/07/16 10:00:27;;;;;;;20.00;10.60;;;;;;;;;;5070987;28;20463;-74
2021/07/16 10:02:56;;;;;;;17.43;10.30;;;;;;;;;;5069193;28;20488;-73
2021/07/16 10:05:25;;;;;;;21.60;10.87;;;;;;;;;;5056437;28;20460;-73
2021/07/16 10:07:53;;;;;;;15.93;11.20;;;;;;;;;;5058178;28;20877;-75
2021/07/16 10:10:24;;;;;;;18.67;8.97;;;;;;;;;;5052905;28;20725;-73
2021/07/16 10:12:52;;;;;;;23.23;10.90;;;;;;;;;;5060990;28;20483;-72
2021/07/16 10:15:23;;;;;;;19.93;11.23;;;;;;;;;;5071565;28;20464;-73
2021/07/16 10:17:53;;;;;;;26.20;10.07;;;;;;;;;;5070847;28;20933;-72
2021/07/16 10:20:21;;;;;;;16.00;12.10;;;;;;;;;;5069783;28;20563;-71
2021/07/16 10:22:52;;;;;;;19.27;10.60;;;;;;;;;;5073284;28;20491;-73
2021/07/16 10:25:28;;;;;;;13.20;9.37;;;;;;;;;;5075029;28;20467;-73
2021/07/16 10:28:01;;;;;;;19.60;10.97;;;;;;;;;;5066676;28;20467;-74
2021/07/16 10:30:42;;;;;;;16.67;9.00;;;;;;;;;;5054511;28;20543;-73
2021/07/16 10:33:10;;;;;;;14.30;9.20;;;;;;;;;;5066931;28;20472;-73
2021/07/16 10:35:39;;;;;;;17.93;9.83;;;;;;;;;;5069329;28;20532;-74
2021/07/16 10:38:30;;;;;;;15.70;10.17;;;;;;;;;;5053610;28;20928;-73
2021/07/16 10:41:00;;;;;;;12.37;9.60;;;;;;;;;;5058167;28;20505;-73
2021/07/16 10:43:40;;;;;;;31.77;11.37;;;;;;;;;;5079039;28;20883;-73
2021/07/16 10:46:24;;;;;;;16.40;10.13;;;;;;;;;;5077452;28;20456;-73
2021/07/16 10:48:56;;;;;;;15.43;10.37;;;;;;;;;;5077008;28;20440;-74
2021/07/16 10:51:28;;;;;;;16.93;10.00;;;;;;;;;;5077636;28;20463;-74
2021/07/16 10:53:56;;;;;;;12.87;9.57;;;;;;;;;;5059394;28;20473;-73
2021/07/16 10:56:39;;;;;;;15.90;9.90;;;;;;;;;;5058720;28;20552;-73
2021/07/16 10:59:07;;;;;;;13.80;8.30;;;;;;;;;;5070690;28;20462;-73
2021/07/16 11:01:39;;;;;;;12.47;8.40;;;;;;;;;;5067448;28;20448;-71
2021/07/16 11:04:08;;;;;;;15.57;9.23;;;;;;;;;;5062462;28;20786;-74
2021/07/16 11:06:54;;;;;;;21.33;8.37;;;;;;;;;;5071724;28;20448;-71
2021/07/16 11:09:58;;;;;;;;;;;;;;;;;;;;;
2021/07/16 11:12:44;;;;;;;13.10;8.73;;;;;;;;;;5069719;28;20448;-73
2021/07/16 11:15:31;;;;;;;14.43;8.60;;;;;;;;;;5074024;28;20452;-76
2021/07/16 11:18:02;;;;;;;14.10;8.43;;;;;;;;;;5057743;28;20449;-73
2021/07/16 11:20:33;;;;;;;11.90;8.40;;;;;;;;;;5068761;28;20472;-73
2021/07/16 11:23:06;;;;;;;12.20;7.10;;;;;;;;;;5071109;28;20512;-73
2021/07/16 11:25:35;;;;;;;14.80;7.80;;;;;;;;;;5066448;28;20472;-73
2021/07/16 11:28:10;;;;;;;11.47;7.23;;;;;;;;;;5075791;28;20533;-75
2021/07/16 11:30:43;;;;;;;14.83;7.67;;;;;;;;;;5071210;28;20860;-73
2021/07/16 11:33:16;;;;;;;18.50;8.47;;;;;;;;;;5071231;28;20552;-73
2021/07/16 11:35:52;;;;;;;10.27;7.13;;;;;;;;;;5072243;28;20456;-74
2021/07/16 11:38:25;;;;;;;13.67;6.83;;;;;;;;;;5073598;28;20475;-74
2021/07/16 11:40:55;;;;;;;17.23;7.50;;;;;;;;;;5059720;28;20460;-73
2021/07/16 11:43:35;;;;;;;9.50;7.33;;;;;;;;;;5072235;28;20557;-74
2021/07/16 11:46:05;;;;;;;10.20;6.90;;;;;;;;;;5071852;28;20452;-73
2021/07/16 11:48:40;;;;;;;14.47;6.70;;;;;;;;;;5069349;28;20441;-73
2021/07/16 11:51:08;;;;;;;15.47;7.70;;;;;;;;;;5072851;28;20542;-74
2021/07/16 11:53:39;;;;;;;9.00;5.80;;;;;;;;;;5074707;28;20453;-74
2021/07/16 11:56:32;;;;;;;16.77;7.13;;;;;;;;;;5066470;28;20449;-74
2021/07/16 11:59:08;;;;;;;14.27;6.70;;;;;;;;;;5066205;28;20614;-74
2021/07/16 12:01:36;;;;;;;14.20;8.00;;;;;;;;;;5065640;28;20456;-74
2021/07/16 12:04:21;;;;;;;13.00;6.33;;;;;;;;;;5057443;28;20516;-73
2021/07/16 12:06:55;;;;;;;14.40;5.80;;;;;;;;;;5057462;28;20819;-74
2021/07/16 12:09:50;;;;;;;11.13;5.90;;;;;;;;;;5056438;28;20725;-73
2021/07/16 12:12:18;;;;;;;12.07;7.03;;;;;;;;;;5072293;28;20457;-74
2021/07/16 12:14:50;;;;;;;15.10;7.77;;;;;;;;;;5059398;28;20454;-73
2021/07/16 12:17:22;;;;;;;11.30;8.30;;;;;;;;;;5056638;28;20711;-74
2021/07/16 12:19:53;;;;;;;17.43;8.07;;;;;;;;;;5055407;28;20552;-74
2021/07/16 12:22:26;;;;;;;10.10;6.57;;;;;;;;;;5054853;28;20434;-72
2021/07/16 12:25:05;;;;;;;12.73;6.83;;;;;;;;;;5062733;28;21051;-74
2021/07/16 12:27:32;;;;;;;14.33;8.37;;;;;;;;;;5063416;28;20561;-74
2021/07/16 12:30:03;;;;;;;15.53;8.20;;;;;;;;;;5072653;28;20444;-74
2021/07/16 12:32:41;;;;;;;11.93;8.37;;;;;;;;;;5073727;28;20464;-74
2021/07/16 12:35:23;;;;;;;15.90;8.10;;;;;;;;;;5067417;28;20514;-74
2021/07/16 12:37:53;;;;;;;14.33;7.30;;;;;;;;;;5064740;28;21089;-76
2021/07/16 12:40:22;;;;;;;15.17;8.10;;;;;;;;;;5070071;28;20470;-74
2021/07/16 12:43:04;;;;;;;15.00;7.20;;;;;;;;;;5070491;28;20505;-74
2021/07/16 12:45:40;;;;;;;17.07;8.00;;;;;;;;;;5070401;28;20527;-75
2021/07/16 12:48:12;;;;;;;14.73;7.77;;;;;;;;;;5065833;28;20520;-74
2021/07/16 12:50:41;;;;;;;12.70;6.60;;;;;;;;;;5073426;28;21193;-74
2021/07/16 12:53:10;;;;;;;14.10;7.53;;;;;;;;;;5069444;28;20737;-74
2021/07/16 12:55:40;;;;;;;15.83;7.20;;;;;;;;;;5066003;28;20902;-73
2021/07/16 12:58:09;;;;;;;14.47;8.00;;;;;;;;;;5075666;28;20507;-74
2021/07/16 13:00:44;;;;;;;16.77;6.77;;;;;;;;;;5063227;28;20465;-74
2021/07/16 13:03:18;;;;;;;11.30;6.80;;;;;;;;;;5069921;28;20803;-73
2021/07/16 13:05:52;;;;;;;9.73;6.13;;;;;;;;;;5072938;28;20510;-73
2021/07/16 13:08:21;;;;;;;14.13;7.40;;;;;;;;;;5067934;28;20466;-73
2021/07/16 13:10:55;;;;;;;14.27;6.90;;;;;;;;;;5058096;28;20457;-74
2021/07/16 13:13:57;;;;;;;11.23;6.90;;;;;;;;;;5073409;28;20530;-74
2021/07/16 13:16:30;;;;;;;18.40;7.30;;;;;;;;;;5071605;28;20499;-74
2021/07/16 13:18:58;;;;;;;8.50;5.87;;;;;;;;;;5073208;28;21076;-75
2021/07/16 13:21:30;;;;;;;15.00;7.70;;;;;;;;;;5064294;28;20457;-74
2021/07/16 13:23:58;;;;;;;9.37;5.80;;;;;;;;;;5072022;28;20746;-72
2021/07/16 13:26:34;;;;;;;18.93;7.10;;;;;;;;;;5071312;28;20897;-72
2021/07/16 13:29:07;;;;;;;10.90;6.40;;;;;;;;;;5071707;28;20447;-74
2021/07/16 13:31:37;;;;;;;12.50;6.70;;;;;;;;;;5063265;28;20492;-72
2021/07/16 13:34:05;;;;;;;8.90;5.63;;;;;;;;;;5059745;28;20450;-74
2021/07/16 13:36:39;;;;;;;14.73;7.03;;;;;;;;;;5065885;28;20457;-73
2021/07/16 13:39:13;;;;;;;16.47;7.87;;;;;;;;;;5057698;28;20488;-73
2021/07/16 13:41:43;;;;;;;8.73;4.93;;;;;;;;;;5064285;28;20758;-74
2021/07/16 13:44:18;;;;;;;13.53;6.77;;;;;;;;;;5068327;28;20932;-73
2021/07/16 13:46:51;;;;;;;21.17;7.97;;;;;;;;;;5061789;28;20448;-74
2021/07/16 13:49:20;;;;;;;11.70;6.30;;;;;;;;;;5055028;28;20481;-73
2021/07/16 13:51:58;;;;;;;14.07;6.73;;;;;;;;;;5063163;28;20444;-74
2021/07/16 13:54:29;;;;;;;8.67;5.27;;;;;;;;;;5073385;28;20522;-74
2021/07/16 13:57:00;;;;;;;13.50;6.00;;;;;;;;;;5077423;28;20447;-75
2021/07/16 13:59:28;;;;;;;12.70;6.50;;;;;;;;;;5095626;28;20513;-74
2021/07/16 14:01:59;;;;;;;10.97;6.37;;;;;;;;;;5087716;28;20938;-73
2021/07/16 14:04:28;;;;;;;22.47;7.17;;;;;;;;;;5075078;28;20933;-74
2021/07/16 14:07:00;;;;;;;13.40;6.37;;;;;;;;;;5073284;28;20464;-76
2021/07/16 14:09:31;;;;;;;10.30;5.87;;;;;;;;;;5074400;28;20993;-74
2021/07/16 14:12:00;;;;;;;13.63;5.93;;;;;;;;;;5057121;28;20472;-75
2021/07/16 14:14:30;;;;;;;13.03;6.60;;;;;;;;;;5054625;28;20452;-74
2021/07/16 14:17:02;;;;;;;15.00;6.23;;;;;;;;;;5065519;28;20476;-75
2021/07/16 14:19:31;;;;;;;14.17;5.87;;;;;;;;;;5076416;28;21096;-75
2021/07/16 14:21:59;;;;;;;11.90;5.17;;;;;;;;;;5065569;28;20464;-74
2021/07/16 14:24:31;;;;;;;16.07;5.63;;;;;;;;;;5077136;28;20486;-75
2021/07/16 14:26:59;;;;;;;14.70;6.57;;;;;;;;;;5075202;28;20452;-73
2021/07/16 14:29:27;;;;;;;14.47;6.80;;;;;;;;;;5076698;28;20453;-75
2021/07/16 14:31:56;;;;;;;12.70;5.80;;;;;;;;;;5073433;28;20441;-75
2021/07/16 14:34:26;;;;;;;16.37;5.83;;;;;;;;;;5061114;28;20448;-75
2021/07/16 14:36:54;;;;;;;11.57;6.13;;;;;;;;;;5039710;28;20453;-74
2021/07/16 14:39:22;;;;;;;12.07;5.87;;;;;;;;;;5056820;28;20456;-74
2021/07/16 14:41:50;;;;;;;14.87;6.40;;;;;;;;;;5074477;28;20513;-74
2021/07/16 14:44:24;;;;;;;16.10;6.53;;;;;;;;;;5072475;28;20507;-73
2021/07/16 14:46:52;;;;;;;8.63;5.90;;;;;;;;;;5077225;28;20464;-74
2021/07/16 14:49:23;;;;;;;11.97;5.23;;;;;;;;;;5057098;28;20453;-73
2021/07/16 14:51:58;;;;;;;13.67;6.23;;;;;;;;;;5056675;28;20465;-73
2021/07/16 14:54:44;;;;;;;12.23;5.40;;;;;;;;;;5057558;28;20488;-73